| time (UTC) | temp C | wind direction | speed KPH | gust KPH | rain 1hr cm | rain 24hr cm | rain mn cm | humidity % | barometer mb |
| 20260510164009 | 13 | 298 | 8.0 | 17.7 | 0.00 | 0.05 | 0.00 | 33 | 1017.6 |
| 20260510163511 | 13 | 316 | 11.3 | 22.5 | 0.00 | 0.05 | 0.00 | 31 | 1017.6 |
| 20260510163024 | 13 | 261 | 11.3 | 22.5 | 0.00 | 0.05 | 0.00 | 31 | 1017.6 |
| 20260510162506 | 13 | 333 | 6.4 | 16.1 | 0.00 | 0.05 | 0.00 | 34 | 1017.5 |
| 20260510162005 | 13 | 303 | 4.8 | 14.5 | 0.00 | 0.05 | 0.00 | 31 | 1017.6 |
| 20260510161512 | 13 | 284 | 11.3 | 22.5 | 0.00 | 0.05 | 0.00 | 36 | 1017.5 |
| 20260510161006 | 13 | 265 | 11.3 | 20.9 | 0.00 | 0.05 | 0.00 | 36 | 1017.4 |
| 20260510160507 | 13 | 334 | 8.0 | 16.1 | 0.00 | 0.05 | 0.00 | 34 | 1017.5 |
| 20260510160024 | 13 | 271 | 8.0 | 16.1 | 0.00 | 0.05 | 0.00 | 34 | 1017.5 |
| 20260510155509 | 12 | 302 | 4.8 | 22.5 | 0.00 | 0.05 | 0.00 | 33 | 1017.4 |
| 20260510155010 | 12 | 290 | 8.0 | 25.7 | 0.00 | 0.05 | 0.00 | 36 | 1017.5 |
| 20260510154504 | 12 | 336 | 9.7 | 25.7 | 0.00 | 0.05 | 0.00 | 34 | 1017.5 |
| 20260510154004 | 12 | 34 | 8.0 | 19.3 | 0.00 | 0.05 | 0.00 | 34 | 1017.5 |
| 20260510153506 | 12 | 304 | 6.4 | 24.1 | 0.00 | 0.05 | 0.00 | 35 | 1017.4 |
| 20260510153014 | 12 | 319 | 8.0 | 24.1 | 0.00 | 0.05 | 0.00 | 33 | 1017.4 |
| 20260510152507 | 12 | 251 | 4.8 | 19.3 | 0.00 | 0.05 | 0.00 | 36 | 1017.3 |
| 20260510152011 | 12 | 293 | 6.4 | 16.1 | 0.00 | 0.05 | 0.00 | 38 | 1017.3 |
| 20260510151526 | 12 | 342 | 6.4 | 16.1 | 0.00 | 0.05 | 0.00 | 36 | 1017.3 |
| 20260510151009 | 12 | 25 | 9.7 | 16.1 | 0.00 | 0.05 | 0.00 | 39 | 1017.2 |
| 20260510150505 | 12 | 277 | 4.8 | 16.1 | 0.00 | 0.05 | 0.00 | 35 | 1017.2 |
| 20260510150010 | 12 | 336 | 4.8 | 14.5 | 0.00 | 0.05 | 0.00 | 40 | 1017.2 |
| 20260510145508 | 12 | 329 | 6.4 | 14.5 | 0.00 | 0.05 | 0.00 | 37 | 1017.0 |
| 20260510145009 | 12 | 271 | 8.0 | 14.5 | 0.00 | 0.05 | 0.00 | 39 | 1017.1 |
| 20260510144532 | 11 | 342 | 4.8 | 14.5 | 0.00 | 0.05 | 0.00 | 38 | 1016.9 |
| 20260510144014 | 11 | 24 | 3.2 | 12.9 | 0.00 | 0.05 | 0.00 | 40 | 1016.8 |
| 20260510143511 | 11 | 275 | 8.0 | 12.9 | 0.00 | 0.05 | 0.00 | 40 | 1016.9 |
| 20260510143043 | 11 | 309 | 4.8 | 11.3 | 0.00 | 0.05 | 0.00 | 42 | 1016.8 |
| 20260510142503 | 11 | 267 | 4.8 | 11.3 | 0.00 | 0.05 | 0.00 | 43 | 1016.7 |
| 20260510142004 | 11 | 263 | 4.8 | 11.3 | 0.00 | 0.05 | 0.00 | 44 | 1016.7 |
| 20260510141521 | 10 | 217 | 0.0 | 8.0 | 0.00 | 0.05 | 0.00 | 46 | 1016.7 |
| 20260510141009 | 10 | 290 | 3.2 | 14.5 | 0.00 | 0.05 | 0.00 | 44 | 1016.8 |
| 20260510140511 | 10 | 35 | 4.8 | 14.5 | 0.00 | 0.05 | 0.00 | 45 | 1016.8 |
| 20260510140028 | 10 | 63 | 4.8 | 12.9 | 0.00 | 0.05 | 0.00 | 44 | 1016.7 |
| 20260510135510 | 10 | 28 | 3.2 | 8.0 | 0.00 | 0.05 | 0.00 | 46 | 1016.8 |
| 20260510135014 | 10 | 294 | 3.2 | 14.5 | 0.00 | 0.05 | 0.00 | 45 | 1016.8 |
| 20260510134506 | 10 | 23 | 4.8 | 14.5 | 0.00 | 0.05 | 0.00 | 47 | 1016.7 |
| 20260510134006 | 10 | 34 | 8.0 | 14.5 | 0.00 | 0.05 | 0.00 | 44 | 1016.7 |
| 20260510133509 | 10 | 267 | 1.6 | 8.0 | 0.00 | 0.05 | 0.00 | 47 | 1016.7 |
| 20260510133023 | 10 | 51 | 4.8 | 12.9 | 0.00 | 0.05 | 0.00 | 50 | 1016.6 |
| 20260510132511 | 10 | 10 | 6.4 | 12.9 | 0.00 | 0.05 | 0.00 | 47 | 1016.5 |
| 20260510132016 | 10 | 342 | 4.8 | 8.0 | 0.00 | 0.05 | 0.00 | 47 | 1016.4 |
| 20260510131529 | 9 | 13 | 3.2 | 12.9 | 0.00 | 0.05 | 0.00 | 49 | 1016.5 |
| 20260510131011 | 9 | 317 | 4.8 | 12.9 | 0.00 | 0.05 | 0.00 | 46 | 1016.3 |
| 20260510130504 | 9 | 325 | 6.4 | 11.3 | 0.00 | 0.05 | 0.00 | 49 | 1016.2 |
| 20260510130009 | 9 | 352 | 4.8 | 12.9 | 0.00 | 0.05 | 0.00 | 49 | 1016.1 |
| 20260510125507 | 9 | 333 | 6.4 | 12.9 | 0.00 | 0.05 | 0.00 | 48 | 1016.2 |
| 20260510125010 | 8 | 346 | 4.8 | 11.3 | 0.00 | 0.05 | 0.00 | 50 | 1016.1 |
| 20260510124525 | 8 | 38 | 6.4 | 12.9 | 0.00 | 0.05 | 0.00 | 51 | 1016.2 |
| 20260510124007 | 8 | 38 | 4.8 | 14.5 | 0.00 | 0.05 | 0.00 | 52 | 1016.1 |
| 20260510123515 | 8 | 13 | 6.4 | 14.5 | 0.00 | 0.05 | 0.00 | 54 | 1016.1 |
| 20260510123028 | 8 | 352 | 4.8 | 12.9 | 0.00 | 0.05 | 0.00 | 55 | 1016.2 |
| 20260510122510 | 8 | 24 | 6.4 | 12.9 | 0.00 | 0.05 | 0.00 | 56 | 1016.0 |
| 20260510122007 | 8 | 285 | 4.8 | 11.3 | 0.00 | 0.05 | 0.00 | 57 | 1015.9 |
| 20260510121514 | 8 | 350 | 4.8 | 16.1 | 0.00 | 0.05 | 0.00 | 58 | 1015.9 |
| 20260510121008 | 7 | 352 | 8.0 | 17.7 | 0.00 | 0.05 | 0.00 | 58 | 1015.8 |
| 20260510120511 | 7 | 352 | 9.7 | 17.7 | 0.00 | 0.05 | 0.00 | 59 | 1015.7 |
| 20260510120025 | 7 | 317 | 4.8 | 12.9 | 0.00 | 0.05 | 0.00 | 61 | 1015.7 |
| 20260510115510 | 7 | 330 | 3.2 | 9.7 | 0.00 | 0.05 | 0.00 | 61 | 1015.6 |
| 20260510115011 | 7 | 328 | 3.2 | 9.7 | 0.00 | 0.05 | 0.00 | 63 | 1015.5 |
| 20260510114529 | 6 | 322 | 4.8 | 9.7 | 0.00 | 0.05 | 0.00 | 64 | 1015.3 |
| 20260510114009 | 6 | 343 | 3.2 | 9.7 | 0.00 | 0.05 | 0.00 | 65 | 1015.2 |
| 20260510113508 | 6 | 346 | 3.2 | 8.0 | 0.00 | 0.05 | 0.00 | 68 | 1015.2 |
| 20260510113019 | 5 | 352 | 3.2 | 8.0 | 0.00 | 0.05 | 0.00 | 69 | 1015.3 |
| 20260510112507 | 5 | 336 | 3.2 | 4.8 | 0.00 | 0.05 | 0.00 | 70 | 1015.2 |
| 20260510112007 | 5 | 333 | 1.6 | 8.0 | 0.00 | 0.05 | 0.00 | 73 | 1015.1 |
| 20260510111525 | 4 | 329 | 1.6 | 8.0 | 0.00 | 0.05 | 0.00 | 74 | 1015.1 |
| 20260510111012 | 3 | 340 | 1.6 | 6.4 | 0.00 | 0.05 | 0.00 | 76 | 1014.9 |
| 20260510110512 | 3 | 311 | 3.2 | 6.4 | 0.00 | 0.05 | 0.00 | 79 | 1015.0 |
| 20260510110019 | 3 | 313 | 1.6 | 6.4 | 0.00 | 0.05 | 0.00 | 82 | 1015.0 |
| 20260510105507 | 2 | 316 | 1.6 | 6.4 | 0.00 | 0.05 | 0.00 | 83 | 1014.9 |
| 20260510105010 | 2 | 325 | 1.6 | 4.8 | 0.00 | 0.05 | 0.00 | 84 | 1014.7 |
| 20260510104524 | 2 | 9 | 0.0 | 3.2 | 0.00 | 0.05 | 0.00 | 84 | 1014.7 |
| 20260510104011 | 2 | 5 | 0.0 | 3.2 | 0.00 | 0.05 | 0.00 | 84 | 1014.6 |
| 20260510103503 | 2 | 13 | 0.0 | 1.6 | 0.00 | 0.05 | 0.00 | 84 | 1014.5 |
| 20260510103008 | 2 | 20 | 0.0 | 0.0 | 0.00 | 0.05 | 0.00 | 84 | 1014.5 |
| 20260510102508 | 2 | 20 | 0.0 | 3.2 | 0.00 | 0.05 | 0.00 | 84 | 1014.5 |
| 20260510102011 | 2 | 20 | 0.0 | 3.2 | 0.00 | 0.05 | 0.00 | 83 | 1014.5 |
| 20260510101519 | 2 | 20 | 0.0 | 3.2 | 0.00 | 0.05 | 0.00 | 83 | 1014.4 |
| 20260510101009 | 2 | 20 | 0.0 | 0.0 | 0.00 | 0.05 | 0.00 | 82 | 1014.1 |
| 20260510100510 | 2 | 20 | 0.0 | 0.0 | 0.00 | 0.05 | 0.00 | 81 | 1014.1 |
| 20260510100026 | 2 | 20 | 0.0 | 3.2 | 0.00 | 0.05 | 0.00 | 80 | 1014.1 |
| 20260510095503 | 3 | 20 | 0.0 | 3.2 | 0.00 | 0.05 | 0.00 | 80 | 1014.0 |
| 20260510095004 | 3 | 20 | 0.0 | 3.2 | 0.00 | 0.05 | 0.00 | 80 | 1014.0 |
| 20260510094514 | 3 | 20 | 0.0 | 3.2 | 0.00 | 0.05 | 0.00 | 80 | 1013.8 |
| 20260510094007 | 3 | 20 | 0.0 | 1.6 | 0.00 | 0.05 | 0.00 | 80 | 1013.8 |
| 20260510093507 | 3 | 20 | 0.0 | 1.6 | 0.00 | 0.05 | 0.00 | 81 | 1013.8 |
| 20260510093023 | 3 | 20 | 0.0 | 1.6 | 0.00 | 0.05 | 0.00 | 80 | 1013.8 |
| 20260510092509 | 3 | 20 | 0.0 | 1.6 | 0.00 | 0.05 | 0.00 | 80 | 1013.8 |
| 20260510092012 | 3 | 20 | 0.0 | 1.6 | 0.00 | 0.05 | 0.00 | 79 | 1013.7 |
| 20260510091525 | 3 | 20 | 0.0 | 1.6 | 0.00 | 0.05 | 0.00 | 78 | 1013.6 |
| 20260510091003 | 3 | 20 | 0.0 | 1.6 | 0.00 | 0.05 | 0.00 | 78 | 1013.5 |
| 20260510090506 | 3 | 20 | 0.0 | 3.2 | 0.00 | 0.05 | 0.00 | 77 | 1013.4 |
| 20260510090018 | 3 | 20 | 0.0 | 3.2 | 0.00 | 0.05 | 0.00 | 77 | 1013.3 |
| 20260510085506 | 4 | 20 | 0.0 | 3.2 | 0.00 | 0.05 | 0.00 | 76 | 1013.2 |
| 20260510085009 | 4 | 20 | 0.0 | 3.2 | 0.00 | 0.05 | 0.00 | 75 | 1013.0 |
| 20260510084525 | 4 | 20 | 0.0 | 3.2 | 0.00 | 0.05 | 0.00 | 75 | 1012.8 |
| 20260510084009 | 4 | 20 | 0.0 | 3.2 | 0.00 | 0.05 | 0.00 | 74 | 1012.7 |
| 20260510083514 | 5 | 20 | 0.0 | 3.2 | 0.00 | 0.05 | 0.00 | 74 | 1012.6 |
| 20260510083008 | 5 | 20 | 0.0 | 3.2 | 0.00 | 0.05 | 0.00 | 73 | 1012.5 |
| 20260510082506 | 5 | 20 | 0.0 | 1.6 | 0.00 | 0.05 | 0.00 | 72 | 1012.4 |
| 20260510082006 | 5 | 20 | 0.0 | 3.2 | 0.00 | 0.05 | 0.00 | 72 | 1012.3 |
| 20260510081535 | 5 | 20 | 1.6 | 3.2 | 0.00 | 0.05 | 0.00 | 72 | 1012.2 |
| 20260510081009 | 5 | 32 | 0.0 | 3.2 | 0.00 | 0.05 | 0.00 | 71 | 1012.2 |
| 20260510080510 | 5 | 32 | 1.6 | 3.2 | 0.00 | 0.05 | 0.00 | 70 | 1012.1 |
| 20260510080028 | 5 | 32 | 0.0 | 3.2 | 0.00 | 0.05 | 0.00 | 70 | 1012.1 |
| 20260510075511 | 6 | 32 | 1.6 | 3.2 | 0.00 | 0.05 | 0.00 | 69 | 1012.0 |
| 20260510075006 | 6 | 32 | 1.6 | 3.2 | 0.00 | 0.05 | 0.00 | 68 | 1011.9 |
| 20260510074514 | 6 | 32 | 0.0 | 3.2 | 0.00 | 0.05 | 0.00 | 68 | 1011.7 |
| 20260510074012 | 6 | 32 | 0.0 | 4.8 | 0.00 | 0.05 | 0.00 | 67 | 1011.7 |
| 20260510073511 | 6 | 32 | 1.6 | 6.4 | 0.00 | 0.05 | 0.00 | 67 | 1011.6 |
| 20260510073024 | 6 | 28 | 3.2 | 6.4 | 0.00 | 0.05 | 0.00 | 66 | 1011.5 |
| 20260510072517 | 6 | 33 | 3.2 | 4.8 | 0.00 | 0.05 | 0.00 | 66 | 1011.5 |
| 20260510072012 | 7 | 43 | 3.2 | 6.4 | 0.00 | 0.05 | 0.00 | 66 | 1011.4 |
| 20260510071529 | 7 | 32 | 3.2 | 6.4 | 0.00 | 0.05 | 0.00 | 65 | 1011.3 |
| 20260510071003 | 7 | 41 | 3.2 | 6.4 | 0.00 | 0.05 | 0.00 | 65 | 1011.2 |
| 20260510070506 | 7 | 31 | 3.2 | 4.8 | 0.00 | 0.05 | 0.00 | 65 | 1011.2 |
| 20260510070022 | 7 | 49 | 3.2 | 3.2 | 0.00 | 0.05 | 0.00 | 64 | 1011.1 |
| 20260510065507 | 7 | 57 | 1.6 | 4.8 | 0.00 | 0.05 | 0.00 | 64 | 1011.0 |
| 20260510065010 | 7 | 56 | 1.6 | 4.8 | 0.00 | 0.05 | 0.00 | 64 | 1011.1 |
| 20260510064534 | 8 | 49 | 1.6 | 4.8 | 0.00 | 0.05 | 0.00 | 63 | 1011.0 |
| 20260510064008 | 8 | 41 | 3.2 | 4.8 | 0.00 | 0.05 | 0.00 | 63 | 1011.0 |
| 20260510063513 | 8 | 36 | 4.8 | 8.0 | 0.00 | 0.05 | 0.00 | 63 | 1011.0 |
| 20260510063010 | 8 | 46 | 3.2 | 16.1 | 0.00 | 0.05 | 0.00 | 63 | 1010.9 |
| 20260510062507 | 8 | 36 | 4.8 | 16.1 | 0.00 | 0.05 | 0.00 | 63 | 1010.8 |
| 20260510062015 | 8 | 74 | 8.0 | 16.1 | 0.00 | 0.05 | 0.00 | 65 | 1010.6 |
| 20260510061527 | 7 | 43 | 8.0 | 14.5 | 0.00 | 0.05 | 0.00 | 67 | 1010.3 |
| 20260510061007 | 7 | 32 | 4.8 | 8.0 | 0.00 | 0.05 | 0.00 | 69 | 1010.2 |
| 20260510060515 | 7 | 22 | 0.0 | 3.2 | 0.00 | 0.05 | 0.00 | 68 | 1010.1 |
| 20260510060040 | 8 | 22 | 0.0 | 0.0 | 0.00 | 0.05 | 0.00 | 66 | 1010.2 |
| 20260510055510 | 8 | 22 | 0.0 | 3.2 | 0.00 | 0.05 | 0.00 | 65 | 1010.1 |
| 20260510055003 | 8 | 22 | 0.0 | 3.2 | 0.00 | 0.05 | 0.00 | 65 | 1010.0 |
| 20260510054516 | 8 | 22 | 0.0 | 3.2 | 0.00 | 0.05 | 0.00 | 64 | 1009.9 |
| 20260510054012 | 9 | 22 | 0.0 | 3.2 | 0.00 | 0.05 | 0.00 | 63 | 1009.8 |
| 20260510053511 | 9 | 22 | 0.0 | 3.2 | 0.00 | 0.05 | 0.00 | 62 | 1009.8 |
| 20260510053037 | 10 | 22 | 0.0 | 3.2 | 0.00 | 0.05 | 0.00 | 61 | 1009.7 |
| 20260510052509 | 10 | 22 | 1.6 | 4.8 | 0.00 | 0.05 | 0.00 | 61 | 1009.7 |
| 20260510052015 | 10 | 360 | 0.0 | 4.8 | 0.00 | 0.05 | 0.00 | 61 | 1009.6 |
| 20260510051530 | 10 | 360 | 3.2 | 6.4 | 0.00 | 0.05 | 0.00 | 60 | 1009.5 |
| 20260510051004 | 10 | 9 | 3.2 | 6.4 | 0.00 | 0.05 | 0.00 | 60 | 1009.5 |
| 20260510050508 | 10 | 23 | 3.2 | 6.4 | 0.00 | 0.05 | 0.00 | 59 | 1009.3 |
| 20260510050020 | 10 | 35 | 3.2 | 6.4 | 0.00 | 0.05 | 0.00 | 58 | 1009.3 |
| 20260510045508 | 10 | 5 | 3.2 | 6.4 | 0.00 | 0.05 | 0.00 | 58 | 1009.3 |
| 20260510045009 | 10 | 17 | 3.2 | 6.4 | 0.00 | 0.05 | 0.00 | 58 | 1009.2 |
| 20260510044542 | 11 | 17 | 1.6 | 6.4 | 0.00 | 0.05 | 0.00 | 57 | 1009.1 |
| 20260510044007 | 11 | 15 | 3.2 | 6.4 | 0.00 | 0.05 | 0.00 | 57 | 1009.0 |
| 20260510043511 | 11 | 352 | 3.2 | 6.4 | 0.00 | 0.05 | 0.00 | 57 | 1009.1 |
| 20260510043012 | 11 | 360 | 3.2 | 9.7 | 0.00 | 0.05 | 0.00 | 56 | 1009.0 |
| 20260510042506 | 11 | 352 | 4.8 | 9.7 | 0.00 | 0.05 | 0.00 | 56 | 1008.9 |
| 20260510042011 | 11 | 13 | 4.8 | 8.0 | 0.00 | 0.05 | 0.00 | 56 | 1008.8 |
| 20260510041523 | 11 | 24 | 4.8 | 8.0 | 0.00 | 0.05 | 0.00 | 55 | 1008.6 |
| 20260510041007 | 11 | 352 | 6.4 | 12.9 | 0.00 | 0.05 | 0.00 | 55 | 1008.6 |
| 20260510040510 | 11 | 344 | 4.8 | 12.9 | 0.00 | 0.05 | 0.00 | 54 | 1008.5 |
| 20260510040038 | 12 | 28 | 4.8 | 14.5 | 0.00 | 0.05 | 0.00 | 53 | 1008.4 |
| 20260510035513 | 12 | 19 | 8.0 | 14.5 | 0.00 | 0.05 | 0.05 | 53 | 1008.4 |
| 20260510035008 | 12 | 40 | 4.8 | 16.1 | 0.00 | 0.05 | 0.05 | 53 | 1008.4 |
| 20260510034517 | 12 | 16 | 8.0 | 19.3 | 0.00 | 0.05 | 0.05 | 52 | 1008.3 |
| 20260510034006 | 12 | 30 | 12.9 | 24.1 | 0.00 | 0.05 | 0.05 | 52 | 1008.2 |
| 20260510033512 | 12 | 30 | 14.5 | 24.1 | 0.00 | 0.05 | 0.05 | 52 | 1008.1 |
| 20260510033037 | 12 | 19 | 6.4 | 24.1 | 0.00 | 0.05 | 0.05 | 52 | 1008.0 |
| 20260510032510 | 12 | 19 | 8.0 | 24.1 | 0.00 | 0.05 | 0.05 | 51 | 1007.9 |
| 20260510032018 | 12 | 343 | 16.1 | 27.4 | 0.00 | 0.05 | 0.05 | 51 | 1007.9 |
| 20260510031528 | 13 | 352 | 17.7 | 25.7 | 0.00 | 0.05 | 0.05 | 51 | 1007.8 |
| 20260510031011 | 13 | 360 | 8.0 | 24.1 | 0.00 | 0.05 | 0.05 | 52 | 1007.8 |
| 20260510030511 | 13 | 9 | 11.3 | 27.4 | 0.00 | 0.05 | 0.05 | 52 | 1007.7 |
| 20260510030019 | 13 | 34 | 17.7 | 27.4 | 0.00 | 0.05 | 0.05 | 52 | 1007.6 |
| 20260510025510 | 13 | 360 | 16.1 | 27.4 | 0.00 | 0.05 | 0.05 | 51 | 1007.6 |
| 20260510025011 | 14 | 23 | 12.9 | 25.7 | 0.00 | 0.05 | 0.05 | 49 | 1007.5 |
| 20260510024525 | 15 | 16 | 9.7 | 29.0 | 0.00 | 0.05 | 0.05 | 47 | 1007.4 |
| 20260510024010 | 15 | 19 | 17.7 | 27.4 | 0.00 | 0.05 | 0.05 | 44 | 1007.3 |
| 20260510023511 | 15 | 344 | 11.3 | 19.3 | 0.00 | 0.05 | 0.05 | 42 | 1007.1 |
| 20260510023028 | 15 | 13 | 9.7 | 24.1 | 0.00 | 0.05 | 0.05 | 42 | 1007.0 |
| 20260510022506 | 15 | 38 | 9.7 | 29.0 | 0.00 | 0.05 | 0.05 | 42 | 1006.8 |
| 20260510022013 | 15 | 333 | 14.5 | 29.0 | 0.00 | 0.05 | 0.05 | 42 | 1006.6 |
| 20260510021522 | 15 | 352 | 16.1 | 29.0 | 0.00 | 0.05 | 0.05 | 42 | 1006.4 |
| 20260510021009 | 16 | 360 | 12.9 | 25.7 | 0.00 | 0.05 | 0.05 | 45 | 1006.2 |
| 20260510020511 | 15 | 330 | 11.3 | 25.7 | 0.00 | 0.05 | 0.05 | 48 | 1006.1 |
| 20260510020032 | 15 | 336 | 1.6 | 4.8 | 0.00 | 0.05 | 0.05 | 50 | 1005.8 |
| 20260510015514 | 15 | 337 | 1.6 | 3.2 | 0.00 | 0.05 | 0.05 | 49 | 1005.6 |
| 20260510015017 | 15 | 332 | 1.6 | 3.2 | 0.00 | 0.05 | 0.05 | 49 | 1005.5 |
| 20260510014517 | 15 | 346 | 1.6 | 3.2 | 0.00 | 0.05 | 0.05 | 48 | 1005.3 |
| 20260510014007 | 16 | 339 | 1.6 | 3.2 | 0.00 | 0.05 | 0.05 | 48 | 1005.3 |
| 20260510013510 | 16 | 333 | 1.6 | 4.8 | 0.00 | 0.05 | 0.05 | 47 | 1005.1 |
| 20260510013027 | 16 | 333 | 0.0 | 4.8 | 0.00 | 0.05 | 0.05 | 47 | 1005.0 |
| 20260510012507 | 16 | 335 | 1.6 | 3.2 | 0.00 | 0.05 | 0.05 | 46 | 1004.8 |
| 20260510012014 | 16 | 334 | 1.6 | 4.8 | 0.00 | 0.05 | 0.05 | 45 | 1004.7 |
| 20260510011531 | 17 | 331 | 1.6 | 8.0 | 0.00 | 0.05 | 0.05 | 44 | 1004.6 |
| 20260510011011 | 17 | 331 | 3.2 | 8.0 | 0.00 | 0.05 | 0.05 | 43 | 1004.5 |
| 20260510010507 | 17 | 323 | 1.6 | 12.9 | 0.00 | 0.05 | 0.05 | 43 | 1004.5 |
| 20260510010025 | 17 | 329 | 1.6 | 12.9 | 0.00 | 0.05 | 0.05 | 43 | 1004.4 |
| 20260510005510 | 17 | 351 | 3.2 | 6.4 | 0.00 | 0.05 | 0.05 | 42 | 1004.3 |
| 20260510005014 | 17 | 328 | 3.2 | 6.4 | 0.00 | 0.05 | 0.05 | 42 | 1004.3 |
| 20260510004528 | 17 | 336 | 3.2 | 6.4 | 0.00 | 0.05 | 0.05 | 42 | 1004.1 |
| 20260510004013 | 17 | 329 | 3.2 | 9.7 | 0.00 | 0.05 | 0.05 | 41 | 1004.1 |
| 20260510003512 | 17 | 321 | 3.2 | 9.7 | 0.00 | 0.05 | 0.05 | 41 | 1003.9 |
| 20260510003030 | 18 | 328 | 4.8 | 8.0 | 0.00 | 0.05 | 0.05 | 40 | 1003.8 |
| 20260510002510 | 18 | 307 | 3.2 | 8.0 | 0.00 | 0.05 | 0.05 | 39 | 1003.7 |
| 20260510002009 | 18 | 330 | 3.2 | 12.9 | 0.00 | 0.05 | 0.05 | 39 | 1003.7 |
| 20260510001526 | 18 | 350 | 4.8 | 20.9 | 0.00 | 0.05 | 0.05 | 39 | 1003.5 |
| 20260510001010 | 18 | 317 | 6.4 | 32.2 | 0.00 | 0.05 | 0.05 | 38 | 1003.5 |
| 20260510000514 | 18 | 287 | 6.4 | 32.2 | 0.00 | 0.05 | 0.05 | 38 | 1003.5 |
| 20260510000028 | 18 | 288 | 12.9 | 32.2 | 0.00 | 0.05 | 0.05 | 37 | 1003.4 |
| 20260509235505 | 18 | 242 | 8.0 | 40.2 | 0.00 | 0.05 | 0.05 | 37 | 1003.4 |
| 20260509235010 | 19 | 321 | 14.5 | 40.2 | 0.00 | 0.05 | 0.05 | 36 | 1003.3 |
| 20260509234529 | 19 | 304 | 14.5 | 27.4 | 0.00 | 0.05 | 0.05 | 36 | 1003.3 |
| 20260509234010 | 19 | 252 | 9.7 | 32.2 | 0.00 | 0.05 | 0.05 | 36 | 1003.2 |
| 20260509233503 | 19 | 269 | 14.5 | 32.2 | 0.00 | 0.05 | 0.05 | 35 | 1003.2 |
| 20260509233007 | 19 | 279 | 12.9 | 27.4 | 0.00 | 0.05 | 0.05 | 35 | 1003.1 |
| 20260509232506 | 20 | 281 | 14.5 | 25.7 | 0.00 | 0.05 | 0.05 | 35 | 1003.1 |
| 20260509232007 | 20 | 302 | 11.3 | 33.8 | 0.00 | 0.05 | 0.05 | 33 | 1003.2 |
| 20260509231513 | 20 | 296 | 16.1 | 33.8 | 0.00 | 0.05 | 0.05 | 33 | 1003.1 |
| 20260509231007 | 20 | 263 | 14.5 | 43.5 | 0.00 | 0.05 | 0.05 | 33 | 1003.0 |
| 20260509230509 | 20 | 262 | 22.5 | 43.5 | 0.00 | 0.05 | 0.05 | 31 | 1003.0 |
| 20260509230021 | 20 | 242 | 19.3 | 37.0 | 0.00 | 0.05 | 0.05 | 31 | 1002.9 |
| 20260509225504 | 20 | 278 | 22.5 | 46.7 | 0.00 | 0.05 | 0.05 | 30 | 1002.7 |
| 20260509225005 | 21 | 266 | 20.9 | 46.7 | 0.00 | 0.05 | 0.05 | 30 | 1002.6 |
| 20260509224507 | 21 | 302 | 16.1 | 30.6 | 0.00 | 0.05 | 0.05 | 31 | 1002.3 |
| 20260509224005 | 21 | 254 | 14.5 | 37.0 | 0.00 | 0.05 | 0.05 | 32 | 1002.3 |
| 20260509223506 | 21 | 249 | 16.1 | 37.0 | 0.00 | 0.05 | 0.05 | 32 | 1002.1 |
| 20260509223021 | 21 | 263 | 16.1 | 38.6 | 0.00 | 0.05 | 0.05 | 33 | 1001.9 |
| 20260509222506 | 21 | 308 | 19.3 | 38.6 | 0.00 | 0.05 | 0.05 | 34 | 1001.8 |
| 20260509222008 | 20 | 246 | 12.9 | 25.7 | 0.00 | 0.05 | 0.05 | 35 | 1001.9 |
| 20260509221503 | 20 | 252 | 14.5 | 43.5 | 0.00 | 0.05 | 0.05 | 35 | 1001.7 |
| 20260509221003 | 20 | 233 | 24.1 | 43.5 | 0.00 | 0.05 | 0.05 | 35 | 1001.8 |
| 20260509220508 | 20 | 284 | 22.5 | 38.6 | 0.00 | 0.05 | 0.05 | 34 | 1001.7 |
| 20260509220011 | 20 | 227 | 17.7 | 48.3 | 0.00 | 0.05 | 0.05 | 34 | 1001.6 |
| 20260509215507 | 21 | 319 | 19.3 | 48.3 | 0.00 | 0.05 | 0.05 | 33 | 1001.5 |
| 20260509215011 | 21 | 248 | 19.3 | 37.0 | 0.00 | 0.05 | 0.05 | 32 | 1001.5 |
| 20260509214520 | 21 | 232 | 9.7 | 30.6 | 0.00 | 0.05 | 0.05 | 32 | 1001.4 |
| 20260509214008 | 21 | 242 | 16.1 | 30.6 | 0.00 | 0.05 | 0.05 | 32 | 1001.2 |
| 20260509213503 | 21 | 265 | 12.9 | 40.2 | 0.00 | 0.05 | 0.05 | 32 | 1001.3 |
| 20260509213008 | 21 | 244 | 19.3 | 40.2 | 0.00 | 0.05 | 0.05 | 32 | 1001.2 |
| 20260509212506 | 21 | 276 | 14.5 | 27.4 | 0.00 | 0.05 | 0.05 | 33 | 1001.3 |
| 20260509212010 | 21 | 226 | 14.5 | 27.4 | 0.00 | 0.05 | 0.05 | 33 | 1001.3 |
| 20260509211518 | 21 | 287 | 12.9 | 27.4 | 0.00 | 0.05 | 0.05 | 33 | 1001.4 |
| 20260509211007 | 21 | 230 | 14.5 | 24.1 | 0.00 | 0.05 | 0.05 | 35 | 1001.5 |
| 20260509210515 | 21 | 256 | 11.3 | 37.0 | 0.00 | 0.05 | 0.05 | 37 | 1001.4 |
| 20260509210022 | 21 | 292 | 11.3 | 37.0 | 0.00 | 0.05 | 0.05 | 39 | 1001.5 |
| 20260509205504 | 21 | 277 | 12.9 | 27.4 | 0.00 | 0.05 | 0.05 | 41 | 1001.5 |
| 20260509205003 | 20 | 250 | 9.7 | 29.0 | 0.00 | 0.05 | 0.05 | 45 | 1001.4 |
| 20260509204514 | 20 | 297 | 8.0 | 29.0 | 0.00 | 0.05 | 0.05 | 43 | 1001.5 |
| 20260509204007 | 20 | 251 | 12.9 | 27.4 | 0.00 | 0.05 | 0.05 | 47 | 1001.6 |
| 20260509203510 | 20 | 314 | 9.7 | 20.9 | 0.00 | 0.05 | 0.05 | 48 | 1001.8 |
| 20260509203020 | 20 | 294 | 9.7 | 32.2 | 0.00 | 0.05 | 0.05 | 50 | 1001.7 |
| 20260509202509 | 20 | 336 | 14.5 | 29.0 | 0.00 | 0.05 | 0.05 | 50 | 1001.9 |
| 20260509202010 | 20 | 252 | 11.3 | 22.5 | 0.00 | 0.05 | 0.05 | 47 | 1002.0 |
| 20260509201507 | 20 | 289 | 9.7 | 20.9 | 0.00 | 0.05 | 0.05 | 55 | 1001.9 |
| 20260509201002 | 19 | 253 | 6.4 | 17.7 | 0.05 | 0.05 | 0.05 | 56 | 1001.9 |
| 20260509200507 | 18 | 276 | 9.7 | 17.7 | 0.05 | 0.05 | 0.05 | 63 | 1001.9 |
| 20260509200016 | 18 | 290 | 3.2 | 12.9 | 0.05 | 0.05 | 0.05 | 62 | 1001.9 |
| 20260509195512 | 17 | 257 | 6.4 | 17.7 | 0.05 | 0.05 | 0.05 | 63 | 1002.0 |
| 20260509195009 | 17 | 293 | 9.7 | 20.9 | 0.05 | 0.05 | 0.05 | 64 | 1002.0 |
| 20260509194521 | 17 | 252 | 12.9 | 19.3 | 0.05 | 0.05 | 0.05 | 65 | 1002.1 |
| 20260509194007 | 16 | 275 | 8.0 | 17.7 | 0.05 | 0.05 | 0.05 | 72 | 1002.1 |
| 20260509193503 | 15 | 257 | 6.4 | 12.9 | 0.05 | 0.05 | 0.05 | 72 | 1002.1 |
| 20260509193008 | 14 | 201 | 4.8 | 19.3 | 0.05 | 0.05 | 0.05 | 75 | 1002.2 |
| 20260509192505 | 13 | 257 | 0.0 | 27.4 | 0.05 | 0.05 | 0.05 | 75 | 1002.4 |
| 20260509192008 | 13 | 255 | 9.7 | 33.8 | 0.05 | 0.05 | 0.05 | 73 | 1002.6 |
| 20260509191519 | 13 | 269 | 12.9 | 37.0 | 0.05 | 0.05 | 0.05 | 72 | 1002.8 |
| 20260509191011 | 14 | 306 | 19.3 | 46.7 | 0.00 | 0.00 | 0.00 | 67 | 1002.7 |
| 20260509190509 | 16 | 300 | 12.9 | 54.7 | 0.00 | 0.00 | 0.00 | 60 | 1002.5 |
| 20260509190024 | 18 | 259 | 20.9 | 43.5 | 0.00 | 0.00 | 0.00 | 49 | 1002.7 |
| 20260509185505 | 19 | 260 | 11.3 | 30.6 | 0.00 | 0.00 | 0.00 | 49 | 1001.5 |
| 20260509185004 | 19 | 242 | 14.5 | 33.8 | 0.00 | 0.00 | 0.00 | 47 | 1001.2 |
| 20260509184512 | 20 | 269 | 16.1 | 35.4 | 0.00 | 0.00 | 0.00 | 48 | 1001.3 |
| 20260509184006 | 20 | 259 | 16.1 | 35.4 | 0.00 | 0.00 | 0.00 | 47 | 1001.4 |
| 20260509183510 | 20 | 242 | 20.9 | 33.8 | 0.00 | 0.00 | 0.00 | 47 | 1001.2 |
| 20260509183023 | 20 | 248 | 14.5 | 35.4 | 0.00 | 0.00 | 0.00 | 47 | 1001.1 |
| 20260509182508 | 20 | 214 | 19.3 | 35.4 | 0.00 | 0.00 | 0.00 | 46 | 1001.0 |
| 20260509182007 | 20 | 265 | 16.1 | 40.2 | 0.00 | 0.00 | 0.00 | 47 | 1001.0 |
| 20260509181506 | 20 | 188 | 17.7 | 38.6 | 0.00 | 0.00 | 0.00 | 46 | 1001.0 |
| 20260509181004 | 20 | 261 | 14.5 | 37.0 | 0.00 | 0.00 | 0.00 | 45 | 1001.0 |
| 20260509180507 | 20 | 244 | 22.5 | 37.0 | 0.00 | 0.00 | 0.00 | 45 | 1001.1 |
| 20260509180015 | 20 | 226 | 14.5 | 37.0 | 0.00 | 0.00 | 0.00 | 46 | 1001.2 |
| 20260509175507 | 20 | 238 | 16.1 | 35.4 | 0.00 | 0.00 | 0.00 | 45 | 1001.2 |
| 20260509175014 | 20 | 257 | 22.5 | 33.8 | 0.00 | 0.00 | 0.00 | 45 | 1001.3 |
| 20260509174524 | 20 | 236 | 14.5 | 40.2 | 0.00 | 0.00 | 0.00 | 45 | 1001.5 |
| 20260509174010 | 20 | 260 | 16.1 | 40.2 | 0.00 | 0.00 | 0.00 | 44 | 1001.3 |
| 20260509173504 | 20 | 184 | 16.1 | 37.0 | 0.00 | 0.00 | 0.00 | 44 | 1001.4 |
| 20260509173013 | 20 | 179 | 20.9 | 37.0 | 0.00 | 0.00 | 0.00 | 43 | 1001.4 |
| 20260509172507 | 20 | 213 | 20.9 | 37.0 | 0.00 | 0.00 | 0.00 | 43 | 1001.3 |
| 20260509172007 | 20 | 230 | 16.1 | 33.8 | 0.00 | 0.00 | 0.00 | 45 | 1001.4 |
| 20260509171527 | 19 | 228 | 12.9 | 32.2 | 0.00 | 0.00 | 0.00 | 49 | 1001.5 |
| 20260509171008 | 20 | 227 | 17.7 | 32.2 | 0.00 | 0.00 | 0.00 | 49 | 1001.6 |
| 20260509170512 | 20 | 188 | 14.5 | 32.2 | 0.00 | 0.00 | 0.00 | 49 | 1001.5 |
| 20260509170026 | 20 | 235 | 16.1 | 30.6 | 0.00 | 0.00 | 0.00 | 49 | 1001.6 |
| 20260509165505 | 19 | 209 | 16.1 | 30.6 | 0.00 | 0.00 | 0.00 | 48 | 1001.7 |
| 20260509165005 | 19 | 234 | 16.1 | 32.2 | 0.00 | 0.00 | 0.00 | 50 | 1001.8 |
| 20260509164516 | 18 | 244 | 17.7 | 32.2 | 0.00 | 0.00 | 0.00 | 50 | 1001.8 |